createdAt,value
2023-02-21T00:00:46.498Z,84.38
2023-02-21T00:03:32.341Z,88.28
2023-02-21T00:06:23.490Z,83.72
2023-02-21T00:09:11.991Z,96.70
2023-02-21T00:12:04.110Z,93.35
2023-02-21T00:14:50.706Z,97.85
2023-02-21T00:17:45.664Z,81.70
2023-02-21T00:20:33.954Z,96.10
2023-02-21T00:23:19.201Z,86.32
2023-02-21T00:26:07.959Z,86.43
2023-02-21T00:28:56.764Z,86.00
2023-02-21T00:31:41.887Z,82.63
2023-02-21T00:34:26.884Z,93.97
2023-02-21T00:37:14.974Z,94.72
2023-02-21T00:40:01.724Z,86.88
2023-02-21T00:42:46.962Z,85.32
2023-02-21T00:45:33.720Z,86.65
2023-02-21T00:48:24.882Z,95.65
2023-02-21T00:51:17.137Z,84.07
2023-02-21T00:56:54.688Z,81.75
2023-02-21T01:00:05.319Z,81.20
2023-02-21T01:02:50.682Z,90.22
2023-02-21T01:05:37.831Z,89.43
2023-02-21T01:08:35.427Z,90.15
2023-02-21T01:11:20.426Z,92.20
2023-02-21T01:14:05.651Z,80.57
2023-02-21T01:17:12.795Z,85.15
2023-02-21T01:20:00.824Z,88.72
2023-02-21T01:22:53.659Z,87.15
2023-02-21T01:28:37.821Z,84.57
2023-02-21T01:31:26.897Z,95.50
2023-02-21T01:34:17.318Z,88.30
2023-02-21T01:37:05.974Z,87.60
2023-02-21T01:39:51.186Z,86.22
2023-02-21T01:42:53.931Z,92.93
2023-02-21T01:45:42.989Z,88.85
2023-02-21T01:48:36.679Z,88.32
2023-02-21T01:51:44.280Z,83.68
2023-02-21T01:54:39.816Z,88.35
2023-02-21T01:57:37.057Z,90.80
2023-02-21T02:00:28.770Z,85.60
2023-02-21T02:03:30.493Z,78.45
2023-02-21T02:06:28.505Z,88.65
2023-02-21T02:09:13.671Z,82.28
2023-02-21T02:12:25.615Z,84.00
2023-02-21T02:15:13.734Z,86.13
2023-02-21T02:18:13.002Z,83.53
2023-02-21T02:21:13.533Z,91.38
2023-02-21T02:24:18.338Z,84.18
2023-02-21T02:27:26.512Z,81.45
2023-02-21T02:30:19.721Z,94.15
2023-02-21T02:33:13.155Z,88.45
2023-02-21T02:35:56.877Z,78.85
2023-02-21T02:38:53.560Z,83.53
2023-02-21T02:41:40.713Z,84.90
2023-02-21T02:44:33.616Z,90.78
2023-02-21T02:47:07.882Z,80.55
2023-02-21T02:49:38.633Z,86.07
2023-02-21T02:52:11.141Z,80.85
2023-02-21T02:54:37.743Z,81.85
2023-02-21T02:57:10.611Z,81.35
2023-02-21T02:59:39.964Z,76.78
2023-02-21T03:02:37.101Z,85.22
2023-02-21T03:05:16.588Z,80.50
2023-02-21T03:08:02.872Z,80.32
2023-02-21T03:10:42.755Z,79.47
2023-02-21T03:13:22.025Z,84.95
2023-02-21T03:16:09.077Z,78.15
2023-02-21T03:19:03.287Z,73.45
2023-02-21T03:21:42.095Z,83.82
2023-02-21T03:24:15.312Z,80.13
2023-02-21T03:26:45.382Z,78.65
2023-02-21T03:29:14.078Z,79.32
2023-02-21T03:31:46.653Z,85.53
2023-02-21T03:34:16.662Z,83.03
2023-02-21T03:36:43.874Z,84.20
2023-02-21T03:39:10.506Z,83.60
2023-02-21T03:41:53.176Z,82.60
2023-02-21T03:44:31.724Z,86.28
2023-02-21T03:46:58.314Z,80.88
2023-02-21T03:49:30.216Z,88.55
2023-02-21T03:52:02.326Z,83.72
2023-02-21T03:57:04.886Z,85.38
2023-02-21T03:59:33.755Z,78.38
2023-02-21T04:02:03.597Z,84.43
2023-02-21T04:04:37.785Z,84.00
2023-02-21T04:07:04.371Z,85.82
2023-02-21T04:09:30.869Z,82.95
2023-02-21T04:11:57.604Z,82.55
2023-02-21T04:14:24.360Z,77.55
2023-02-21T04:16:53.677Z,83.55
2023-02-21T04:19:23.720Z,76.72
2023-02-21T04:21:51.982Z,89.88
2023-02-21T04:24:29.602Z,77.03
2023-02-21T04:26:56.742Z,83.95
2023-02-21T04:29:26.505Z,80.38
2023-02-21T04:31:59.800Z,80.35
2023-02-21T04:34:26.413Z,86.28
2023-02-21T04:36:52.984Z,85.82
2023-02-21T04:39:29.046Z,82.75
2023-02-21T04:41:55.763Z,92.32
2023-02-21T04:44:22.553Z,88.68
2023-02-21T04:46:50.127Z,85.68
2023-02-21T04:49:27.686Z,84.13
2023-02-21T04:52:00.634Z,89.32
2023-02-21T04:54:29.383Z,85.40
2023-02-21T04:56:56.028Z,88.88
2023-02-21T04:59:22.667Z,92.07
2023-02-21T05:01:49.318Z,84.63
2023-02-21T05:04:15.994Z,89.18
2023-02-21T05:06:57.068Z,91.03
2023-02-21T05:09:29.291Z,94.72
2023-02-21T05:14:25.507Z,83.90
2023-02-21T05:17:02.879Z,88.97
2023-02-21T05:19:39.345Z,90.43
2023-02-21T05:22:12.176Z,89.60
2023-02-21T05:24:49.502Z,94.13
2023-02-21T05:27:22.997Z,95.28
2023-02-21T05:29:51.560Z,91.80
2023-02-21T05:32:20.383Z,95.35
2023-02-21T05:34:55.365Z,94.32
2023-02-21T05:37:37.747Z,101.88
2023-02-21T05:40:12.113Z,97.85
2023-02-21T05:42:39.264Z,98.65
2023-02-21T05:45:06.961Z,100.82
2023-02-21T05:47:38.378Z,103.97
2023-02-21T05:50:05.676Z,101.28
2023-02-21T05:52:32.224Z,102.18
2023-02-21T05:54:59.054Z,101.70
2023-02-21T05:57:25.763Z,102.65
2023-02-21T06:00:03.852Z,104.10
2023-02-21T06:02:30.937Z,103.78
2023-02-21T06:05:04.514Z,149.15
2023-02-21T06:07:31.222Z,106.10
2023-02-21T06:10:08.226Z,116.05
2023-02-21T06:12:42.014Z,101.57
2023-02-21T06:15:16.240Z,102.57
2023-02-21T06:17:45.953Z,107.18
2023-02-21T06:20:22.068Z,111.20
2023-02-21T06:22:55.707Z,101.80
2023-02-21T06:25:22.435Z,105.90
2023-02-21T06:27:49.668Z,109.00
2023-02-21T06:30:16.464Z,115.03
2023-02-21T06:32:45.780Z,114.55
2023-02-21T06:35:20.019Z,117.15
2023-02-21T06:37:46.765Z,105.43
2023-02-21T06:40:14.827Z,102.05
2023-02-21T06:42:44.604Z,104.50
2023-02-21T06:45:16.917Z,105.15
2023-02-21T06:47:43.455Z,109.03
2023-02-21T06:50:10.478Z,105.57
2023-02-21T06:52:37.092Z,104.03
2023-02-21T06:55:04.128Z,106.40
2023-02-21T06:57:30.930Z,111.88
2023-02-21T07:00:00.251Z,113.32
2023-02-21T07:02:26.974Z,104.82
2023-02-21T07:04:53.746Z,111.90
2023-02-21T07:07:20.349Z,110.68
2023-02-21T07:09:48.159Z,112.70
2023-02-21T07:12:19.959Z,114.43
2023-02-21T07:14:46.544Z,116.18
2023-02-21T07:17:18.271Z,107.60
2023-02-21T07:19:44.937Z,118.05
2023-02-21T07:22:12.011Z,108.75
2023-02-21T07:24:38.619Z,94.80
2023-02-21T07:27:11.170Z,111.30
2023-02-21T07:29:40.940Z,111.32
2023-02-21T07:32:10.168Z,107.03
2023-02-21T07:34:45.265Z,117.55
2023-02-21T07:37:12.480Z,117.28
2023-02-21T07:39:40.619Z,105.35
2023-02-21T07:42:11.564Z,113.60
2023-02-21T07:44:39.736Z,116.78
2023-02-21T07:47:06.463Z,127.20
2023-02-21T07:49:38.525Z,122.93
2023-02-21T07:54:37.153Z,116.18
2023-02-21T07:57:06.189Z,112.50
2023-02-21T07:59:33.277Z,121.63
2023-02-21T08:01:59.951Z,117.50
2023-02-21T08:04:26.770Z,121.82
2023-02-21T08:07:03.761Z,131.77
2023-02-21T08:09:31.060Z,118.25
2023-02-21T08:12:03.456Z,115.85
2023-02-21T08:14:30.147Z,108.57
2023-02-21T08:16:56.880Z,125.05
2023-02-21T08:19:39.926Z,111.93
2023-02-21T08:22:15.636Z,127.45
2023-02-21T08:24:42.238Z,114.30
2023-02-21T08:27:14.329Z,119.75
2023-02-21T08:29:51.176Z,118.72
2023-02-21T08:32:21.487Z,121.30
2023-02-21T08:34:59.025Z,131.73
2023-02-21T08:37:26.002Z,130.52
2023-02-21T08:39:55.167Z,123.65
2023-02-21T08:42:24.305Z,121.15
2023-02-21T08:44:56.074Z,121.63
2023-02-21T08:47:35.991Z,120.88
2023-02-21T08:50:09.059Z,125.70
2023-02-21T08:52:35.819Z,123.65
2023-02-21T08:55:02.539Z,126.78
2023-02-21T08:57:35.090Z,123.78
2023-02-21T09:00:11.432Z,123.50
2023-02-21T09:02:51.066Z,121.25
2023-02-21T09:05:27.296Z,117.88
2023-02-21T09:07:59.728Z,127.68
2023-02-21T09:10:48.052Z,118.25
2023-02-21T09:13:20.456Z,126.20
2023-02-21T09:15:48.464Z,118.38
2023-02-21T09:18:15.897Z,122.35
2023-02-21T09:20:42.481Z,110.85
2023-02-21T09:23:09.798Z,128.63
2023-02-21T09:25:37.364Z,113.43
2023-02-21T09:28:09.326Z,136.68
2023-02-21T09:30:39.073Z,134.40
2023-02-21T09:33:05.692Z,132.27
2023-02-21T09:35:42.262Z,123.57
2023-02-21T09:38:12.577Z,134.80
2023-02-21T09:40:44.410Z,120.25
2023-02-21T09:43:42.170Z,125.72
2023-02-21T09:46:19.232Z,144.23
2023-02-21T09:48:47.831Z,131.55
2023-02-21T09:51:17.260Z,144.57
2023-02-21T09:53:52.270Z,146.35
2023-02-21T09:56:18.943Z,138.30
2023-02-21T09:58:50.279Z,142.63
2023-02-21T10:01:44.499Z,131.73
2023-02-21T10:04:15.183Z,134.77
2023-02-21T10:07:02.747Z,142.70
2023-02-21T10:10:11.998Z,128.00
2023-02-21T10:12:47.882Z,133.25
2023-02-21T10:15:20.636Z,142.88
2023-02-21T10:18:03.249Z,134.98
2023-02-21T10:20:56.922Z,137.43
2023-02-21T10:23:47.358Z,136.20
2023-02-21T10:26:20.223Z,133.25
2023-02-21T10:28:47.024Z,138.02
2023-02-21T10:31:36.129Z,134.98
2023-02-21T10:34:21.356Z,139.30
2023-02-21T10:37:05.193Z,137.77
2023-02-21T10:39:43.526Z,128.75
2023-02-21T10:42:37.109Z,145.98
2023-02-21T10:45:07.383Z,145.32
2023-02-21T10:48:02.266Z,129.52
2023-02-21T10:50:58.698Z,134.90
2023-02-21T10:53:30.326Z,131.30
2023-02-21T10:56:19.726Z,137.48
2023-02-21T10:59:07.484Z,142.82
2023-02-21T11:01:53.553Z,133.30
2023-02-21T11:04:34.461Z,133.43
2023-02-21T11:07:19.926Z,138.95
2023-02-21T11:09:56.914Z,136.23
2023-02-21T11:12:37.896Z,138.75
2023-02-21T11:15:26.427Z,157.80
2023-02-21T11:18:12.411Z,139.77
2023-02-21T11:20:41.779Z,142.02
2023-02-21T11:23:22.524Z,141.65
2023-02-21T11:25:51.912Z,130.05
2023-02-21T11:28:25.608Z,137.13
2023-02-21T11:31:18.502Z,119.25
2023-02-21T11:34:16.072Z,122.85
2023-02-21T11:36:47.590Z,123.03
2023-02-21T11:39:47.685Z,116.95
2023-02-21T11:42:31.572Z,116.95
2023-02-21T11:45:16.433Z,113.63
2023-02-21T11:48:14.167Z,113.63
2023-02-21T11:50:51.181Z,107.25
2023-02-21T11:53:47.416Z,100.68
2023-02-21T11:56:25.983Z,96.70
2023-02-21T11:59:09.158Z,104.88
2023-02-21T12:01:50.308Z,105.35
2023-02-21T12:04:26.456Z,106.43
2023-02-21T12:07:39.779Z,97.50
2023-02-21T12:10:38.660Z,99.60
2023-02-21T12:13:39.907Z,96.15
2023-02-21T12:16:31.547Z,110.00
2023-02-21T12:19:21.661Z,103.47
2023-02-21T12:22:03.826Z,121.95
2023-02-21T12:24:50.692Z,110.82
2023-02-21T12:27:30.935Z,113.00
2023-02-21T12:30:36.967Z,112.57
2023-02-21T12:33:25.982Z,122.60
2023-02-21T12:36:19.028Z,119.30
2023-02-21T12:39:03.818Z,124.10
2023-02-21T12:42:05.459Z,123.05
2023-02-21T12:44:46.499Z,98.55
2023-02-21T12:47:28.256Z,101.00
2023-02-21T12:50:08.981Z,96.70
2023-02-21T12:52:59.287Z,105.38
2023-02-21T12:55:53.954Z,108.22
2023-02-21T12:58:30.972Z,113.10
2023-02-21T13:01:13.178Z,107.55
2023-02-21T13:03:54.939Z,114.30
2023-02-21T13:06:40.270Z,108.28
2023-02-21T13:09:10.737Z,89.60
2023-02-21T13:11:47.590Z,83.75
2023-02-21T13:14:20.739Z,105.03
2023-02-21T13:16:48.450Z,92.05
2023-02-21T13:19:19.669Z,97.00
2023-02-21T13:21:53.173Z,90.57
2023-02-21T13:24:39.650Z,89.43
2023-02-21T13:27:28.387Z,87.25
2023-02-21T13:30:20.705Z,99.05
2023-02-21T13:33:04.004Z,93.28
2023-02-21T13:35:35.770Z,86.50
2023-02-21T13:38:10.662Z,93.60
2023-02-21T13:40:56.593Z,86.18
2023-02-21T13:43:30.835Z,98.72
2023-02-21T13:46:42.680Z,95.00
2023-02-21T13:49:53.470Z,103.35
2023-02-21T13:52:22.510Z,81.68
2023-02-21T13:55:21.525Z,85.85
2023-02-21T13:57:58.292Z,76.82
2023-02-21T14:00:33.030Z,79.57
2023-02-21T14:03:11.569Z,82.25
2023-02-21T14:06:19.846Z,85.90
2023-02-21T14:09:08.411Z,82.88
2023-02-21T14:11:44.878Z,87.50
2023-02-21T14:14:28.189Z,87.32
2023-02-21T14:17:21.109Z,103.35
2023-02-21T14:19:54.190Z,90.28
2023-02-21T14:22:50.435Z,81.88
2023-02-21T14:25:26.016Z,76.97
2023-02-21T14:27:58.839Z,93.18
2023-02-21T14:30:34.917Z,79.90
2023-02-21T14:33:27.184Z,82.75
2023-02-21T14:36:23.088Z,76.20
2023-02-21T14:38:53.449Z,70.75
2023-02-21T14:41:50.931Z,80.78
2023-02-21T14:44:40.573Z,73.78
2023-02-21T14:48:03.068Z,75.13
2023-02-21T14:51:01.323Z,82.20
2023-02-21T14:54:13.753Z,78.95
2023-02-21T15:00:09.321Z,85.57
2023-02-21T15:02:56.782Z,78.60
2023-02-21T15:05:36.151Z,69.05
2023-02-21T15:08:19.368Z,67.15
2023-02-21T15:10:52.062Z,72.50
2023-02-21T15:13:34.239Z,60.72
2023-02-21T15:16:10.810Z,61.60
2023-02-21T15:18:41.713Z,68.82
2023-02-21T15:21:15.251Z,70.73
2023-02-21T15:23:44.709Z,67.05
2023-02-21T15:26:34.611Z,64.70
2023-02-21T15:29:25.686Z,59.60
2023-02-21T15:31:58.912Z,67.03
2023-02-21T15:34:35.317Z,70.47
2023-02-21T15:37:17.525Z,65.03
2023-02-21T15:39:54.550Z,53.95
2023-02-21T15:42:23.643Z,58.53
2023-02-21T15:44:59.278Z,57.35
2023-02-21T15:47:32.770Z,51.47
2023-02-21T15:50:20.675Z,54.95
2023-02-21T15:53:06.126Z,62.67
2023-02-21T15:55:33.007Z,54.65
2023-02-21T15:58:11.677Z,57.92
2023-02-21T16:00:46.026Z,53.13
2023-02-21T16:03:37.370Z,54.80
2023-02-21T16:06:25.130Z,66.22
2023-02-21T16:09:07.746Z,59.90
2023-02-21T16:11:46.634Z,58.17
2023-02-21T16:14:25.078Z,54.92
2023-02-21T16:17:05.568Z,55.90
2023-02-21T16:19:37.823Z,63.97
2023-02-21T16:22:25.052Z,62.58
2023-02-21T16:25:17.688Z,61.28
2023-02-21T16:28:18.970Z,54.05
2023-02-21T16:30:49.475Z,56.22
2023-02-21T16:33:16.485Z,67.95
2023-02-21T16:35:46.231Z,53.22
2023-02-21T16:38:26.198Z,63.75
2023-02-21T16:40:59.339Z,64.75
2023-02-21T16:43:30.181Z,70.20
2023-02-21T16:46:02.471Z,67.25
2023-02-21T16:48:33.182Z,63.88
2023-02-21T16:51:12.057Z,77.93
2023-02-21T16:53:43.080Z,67.13
2023-02-21T16:56:09.872Z,74.10
2023-02-21T16:58:45.142Z,60.15
2023-02-21T17:03:45.671Z,67.30
2023-02-21T17:06:26.892Z,85.33
2023-02-21T17:08:53.587Z,88.87
2023-02-21T17:11:23.276Z,93.43
2023-02-21T17:14:05.655Z,75.30
2023-02-21T17:16:38.317Z,67.60
2023-02-21T17:19:12.617Z,79.30
2023-02-21T17:21:39.183Z,75.43
2023-02-21T17:24:05.874Z,83.03
2023-02-21T17:26:38.534Z,96.65
2023-02-21T17:29:05.965Z,106.68
2023-02-21T17:31:47.286Z,112.82
2023-02-21T17:34:14.161Z,113.85
2023-02-21T17:36:56.671Z,97.85
2023-02-21T17:39:23.313Z,81.82
2023-02-21T17:41:52.969Z,83.63
2023-02-21T17:44:20.082Z,87.18
2023-02-21T17:46:51.567Z,87.15
2023-02-21T17:49:20.672Z,79.05
2023-02-21T17:51:58.924Z,111.22
2023-02-21T17:54:28.969Z,100.53
2023-02-21T17:56:55.596Z,95.32
2023-02-21T17:59:28.793Z,104.90
2023-02-21T18:04:42.934Z,73.18
2023-02-21T18:07:11.799Z,91.45
2023-02-21T18:09:38.599Z,77.18
2023-02-21T18:12:05.373Z,82.55
2023-02-21T18:14:32.370Z,72.80
2023-02-21T18:16:59.437Z,97.40
2023-02-21T18:19:29.775Z,83.25
2023-02-21T18:21:56.502Z,100.90
2023-02-21T18:24:36.233Z,92.25
2023-02-21T18:29:59.912Z,106.18
2023-02-21T18:32:31.975Z,104.60
2023-02-21T18:35:04.994Z,87.20
2023-02-21T18:37:41.956Z,107.22
2023-02-21T18:40:33.519Z,107.85
2023-02-21T18:43:07.189Z,86.57
2023-02-21T18:45:45.510Z,81.32
2023-02-21T18:48:12.077Z,120.65
2023-02-21T18:50:39.000Z,75.88
2023-02-21T18:53:06.924Z,115.38
2023-02-21T18:55:34.239Z,97.10
2023-02-21T18:58:25.904Z,88.43
2023-02-21T19:01:02.513Z,93.43
2023-02-21T19:06:12.920Z,88.90
2023-02-21T19:08:40.022Z,103.65
2023-02-21T19:11:13.001Z,125.47
2023-02-21T19:13:41.581Z,118.28
2023-02-21T19:16:08.800Z,121.93
2023-02-21T19:18:35.438Z,131.55
2023-02-21T19:21:03.428Z,108.82
2023-02-21T19:26:12.820Z,120.28
2023-02-21T19:29:10.702Z,120.80
2023-02-21T19:31:38.073Z,127.25
2023-02-21T19:34:11.864Z,122.22
2023-02-21T19:36:41.498Z,115.35
2023-02-21T19:39:09.749Z,119.35
2023-02-21T19:41:43.850Z,120.68
2023-02-21T19:44:10.483Z,91.97
2023-02-21T19:46:37.122Z,112.43
2023-02-21T19:49:07.007Z,105.50
2023-02-21T19:51:36.704Z,128.43
2023-02-21T19:54:03.316Z,111.97
2023-02-21T19:56:30.071Z,111.95
2023-02-21T19:59:00.081Z,119.85
2023-02-21T20:01:33.253Z,120.20
2023-02-21T20:04:04.511Z,121.32
2023-02-21T20:06:35.532Z,111.45
2023-02-21T20:09:09.533Z,116.17
2023-02-21T20:11:40.145Z,125.47
2023-02-21T20:14:17.633Z,136.75
2023-02-21T20:16:46.548Z,127.22
2023-02-21T20:19:14.414Z,116.13
2023-02-21T20:21:41.263Z,119.95
2023-02-21T20:24:08.841Z,125.20
2023-02-21T20:26:39.741Z,134.23
2023-02-21T20:29:07.712Z,127.88
2023-02-21T20:31:38.274Z,125.60
2023-02-21T20:34:08.926Z,124.40
2023-02-21T20:36:40.089Z,126.30
2023-02-21T20:39:31.275Z,126.37
2023-02-21T20:42:04.441Z,136.60
2023-02-21T20:44:41.422Z,134.57
2023-02-21T20:47:10.159Z,133.27
2023-02-21T20:50:04.976Z,134.60
2023-02-21T20:52:33.113Z,124.82
2023-02-21T20:55:05.794Z,120.32
2023-02-21T20:57:32.972Z,135.98
2023-02-21T21:00:02.435Z,132.35
2023-02-21T21:02:36.748Z,131.02
2023-02-21T21:05:13.719Z,136.18
2023-02-21T21:07:41.885Z,137.13
2023-02-21T21:10:14.630Z,126.65
2023-02-21T21:12:44.939Z,130.27
2023-02-21T21:15:23.328Z,124.55
2023-02-21T21:17:53.470Z,125.93
2023-02-21T21:20:38.748Z,132.05
2023-02-21T21:23:08.836Z,130.95
2023-02-21T21:25:39.996Z,126.68
2023-02-21T21:28:22.796Z,129.90
2023-02-21T21:30:52.496Z,125.78
2023-02-21T21:33:26.565Z,136.63
2023-02-21T21:36:02.058Z,141.38
2023-02-21T21:38:36.168Z,140.07
2023-02-21T21:41:13.252Z,133.23
2023-02-21T21:46:36.405Z,150.73
2023-02-21T21:49:03.047Z,143.18
2023-02-21T21:51:41.181Z,140.57
2023-02-21T21:54:26.711Z,154.70
2023-02-21T21:56:58.364Z,148.15
2023-02-21T21:59:36.661Z,148.48
2023-02-21T22:05:02.816Z,132.30
2023-02-21T22:07:32.409Z,146.60
2023-02-21T22:09:59.318Z,151.70
2023-02-21T22:12:35.302Z,145.20
2023-02-21T22:15:05.815Z,148.10
2023-02-21T22:17:32.449Z,150.10
2023-02-21T22:20:17.022Z,159.38
2023-02-21T22:25:36.838Z,154.23
2023-02-21T22:28:10.509Z,150.05
2023-02-21T22:30:44.258Z,147.50
2023-02-21T22:33:13.667Z,155.20
2023-02-21T22:35:42.916Z,165.02
2023-02-21T22:38:15.721Z,148.10
2023-02-21T22:40:53.908Z,135.98
2023-02-21T22:43:23.397Z,153.07
2023-02-21T22:45:52.205Z,156.45
2023-02-21T22:48:21.286Z,151.77
2023-02-21T22:50:59.119Z,149.27
2023-02-21T22:53:26.915Z,152.63
2023-02-21T22:56:01.288Z,154.48
2023-02-21T22:58:27.867Z,161.20
2023-02-21T23:00:58.104Z,161.70
2023-02-21T23:03:28.787Z,144.73
2023-02-21T23:06:22.505Z,151.00
2023-02-21T23:09:14.159Z,147.32
2023-02-21T23:12:31.912Z,153.10
2023-02-21T23:15:05.347Z,156.98
2023-02-21T23:17:39.258Z,153.00
2023-02-21T23:20:17.906Z,152.30
2023-02-21T23:22:46.590Z,142.35
2023-02-21T23:28:22.743Z,149.18
2023-02-21T23:30:54.402Z,166.70
2023-02-21T23:33:41.118Z,150.95
2023-02-21T23:36:09.539Z,140.90
2023-02-21T23:38:43.308Z,156.60
2023-02-21T23:41:21.701Z,160.82
2023-02-21T23:43:54.103Z,156.05
2023-02-21T23:46:23.105Z,148.82
2023-02-21T23:49:04.457Z,146.57
2023-02-21T23:51:44.209Z,148.02
2023-02-21T23:54:11.612Z,145.30
2023-02-21T23:56:40.345Z,154.50
2023-02-21T23:59:07.582Z,155.65
